Easingwold, United Kingdom
Current Conditions -  °F | °C
As of 12:50 AM on Tuesday 23 Dec 2014 (Local Time) from EGXU Reporting Station
Broken Clouds Broken Clouds  
Wind Chill: 54°   Ceiling: 1800
Heat Index: 54°   Visibility: 5mi
Dew Point: 48°   Wind: 22mph
Humidity: 82%   Direction: 250°WSW
Pressure: 29.77"   Gusts: NA
Location:  54.12°N, 1.19°W
Report Text: EGXU 230050Z AUTO 25019KT 8000 // BKN018/// 12/09 Q1008
Loading
Personal Weather Stations






























Interactive Weather Map New forecast layout! Learn more

10-Day Weather Forecast

Advertisements
Track Severe Weather on mobile